createdAt,value
2019-05-17T17:38:51.227Z,10.43
2019-05-17T17:41:21.473Z,5.60
2019-05-17T17:43:58.762Z,5.83
2019-05-17T17:46:23.764Z,6.42
2019-05-17T17:48:54.024Z,5.20
2019-05-17T17:51:24.350Z,5.08
2019-05-17T17:53:54.715Z,5.80
2019-05-17T17:56:24.991Z,9.93
2019-05-17T17:58:55.332Z,22.73
2019-05-17T18:01:25.656Z,20.25
2019-05-17T18:03:55.913Z,15.85
2019-05-17T18:06:26.186Z,7.45
2019-05-17T18:08:56.551Z,11.48
2019-05-17T18:11:26.902Z,15.20
2019-05-17T18:14:11.124Z,17.23
2019-05-17T18:16:30.352Z,4.70
2019-05-17T18:19:00.594Z,21.15
2019-05-17T18:21:31.000Z,13.10
2019-05-17T18:24:01.261Z,15.68
2019-05-17T18:26:31.625Z,11.50
2019-05-17T18:29:01.867Z,3.10
2019-05-17T18:31:33.318Z,4.75
2019-05-17T18:34:03.627Z,6.22
2019-05-17T18:36:33.897Z,9.93
2019-05-17T18:39:05.347Z,9.18
2019-05-17T18:41:37.234Z,8.60
2019-05-17T18:44:07.454Z,6.65
2019-05-17T18:46:37.799Z,6.00
2019-05-17T18:49:08.028Z,4.42
2019-05-17T18:51:38.274Z,4.75
2019-05-17T18:54:08.525Z,4.50
2019-05-17T18:56:38.798Z,4.58
2019-05-17T18:59:09.016Z,4.08
2019-05-17T19:01:39.250Z,3.05
2019-05-17T19:04:09.510Z,3.83
2019-05-17T19:06:39.733Z,3.50
2019-05-17T19:09:10.958Z,4.53
2019-05-17T19:11:41.182Z,3.50
2019-05-17T19:14:11.430Z,3.30
2019-05-17T19:16:41.673Z,3.45
2019-05-17T19:19:11.933Z,3.27
2019-05-17T19:21:42.186Z,2.72
2019-05-17T19:24:12.433Z,2.52
2019-05-17T19:26:42.668Z,2.83
2019-05-17T19:29:12.920Z,2.55
2019-05-17T19:31:43.167Z,2.67
2019-05-17T19:34:13.426Z,2.90
2019-05-17T19:36:43.644Z,2.95
2019-05-17T19:39:13.901Z,2.67
2019-05-17T19:41:44.197Z,2.35
2019-05-17T19:44:14.452Z,2.20
2019-05-17T19:46:44.696Z,3.27
2019-05-17T19:49:14.955Z,1.95
2019-05-17T19:51:45.925Z,2.72
2019-05-17T19:54:16.179Z,3.17
2019-05-17T19:56:46.419Z,3.00
2019-05-17T19:59:16.667Z,4.62
2019-05-17T20:01:46.901Z,5.70
2019-05-17T20:04:18.252Z,5.40
2019-05-17T20:06:48.483Z,4.37
2019-05-17T20:09:18.739Z,12.33
2019-05-17T20:11:48.997Z,25.08
2019-05-17T20:14:19.487Z,41.53
2019-05-17T20:16:49.717Z,54.48
2019-05-17T20:19:20.063Z,56.58
2019-05-17T20:21:50.316Z,54.38
2019-05-17T20:24:20.577Z,54.42
2019-05-17T20:26:51.789Z,49.63
2019-05-17T20:29:23.119Z,42.10
2019-05-17T20:31:53.372Z,40.33
2019-05-17T20:34:23.649Z,36.20
2019-05-17T20:36:53.891Z,34.05
2019-05-17T20:39:24.183Z,31.50
2019-05-17T20:41:57.340Z,27.80
2019-05-17T20:44:26.396Z,24.77
2019-05-17T20:46:56.649Z,22.85
2019-05-17T20:49:26.940Z,23.95
2019-05-17T20:51:57.254Z,35.65
2019-05-17T20:54:27.514Z,38.23
2019-05-17T20:56:57.844Z,52.08
2019-05-17T20:59:28.091Z,55.92
2019-05-17T21:01:58.354Z,60.03
2019-05-17T21:04:28.592Z,63.75
2019-05-17T21:06:58.862Z,52.95
2019-05-17T21:09:29.118Z,44.95
2019-05-17T21:11:59.367Z,44.75
2019-05-17T21:14:29.610Z,40.28
2019-05-17T21:16:59.872Z,31.73
2019-05-17T21:19:30.137Z,27.58
2019-05-17T21:22:00.392Z,24.60
2019-05-17T21:24:30.648Z,25.65
2019-05-17T21:27:00.923Z,19.90
2019-05-17T21:29:31.159Z,18.15
2019-05-17T21:32:01.458Z,17.65
2019-05-17T21:34:32.755Z,15.75
2019-05-17T21:37:03.026Z,13.95
2019-05-17T21:39:33.267Z,13.25
2019-05-17T21:42:03.525Z,12.43
2019-05-17T21:44:33.772Z,10.60
2019-05-17T21:47:05.239Z,14.28
2019-05-17T21:49:35.513Z,9.45
2019-05-17T21:52:05.944Z,7.60
2019-05-17T21:54:36.149Z,6.58
2019-05-17T21:57:06.405Z,5.67
2019-05-17T21:59:36.633Z,5.67
2019-05-17T22:02:07.354Z,6.08
2019-05-17T22:04:37.580Z,5.28
2019-05-17T22:07:07.823Z,4.67
2019-05-17T22:09:38.057Z,5.80
2019-05-17T22:12:12.743Z,5.12
2019-05-17T22:14:42.945Z,4.17
2019-05-17T22:17:13.185Z,4.42
2019-05-17T22:19:43.420Z,4.45
2019-05-17T22:22:13.663Z,3.55
2019-05-17T22:24:43.904Z,3.92
2019-05-17T22:27:14.151Z,3.90
2019-05-17T22:29:44.392Z,3.37
2019-05-17T22:32:14.658Z,2.80
2019-05-17T22:34:46.058Z,3.40
2019-05-17T22:37:17.680Z,2.70
2019-05-17T22:39:48.020Z,3.08
2019-05-17T22:42:19.339Z,2.85
2019-05-17T22:44:49.561Z,3.05
2019-05-17T22:47:19.801Z,2.67
2019-05-17T22:49:50.023Z,2.47
2019-05-17T22:52:20.271Z,2.37
2019-05-17T22:54:50.510Z,2.22
2019-05-17T22:57:20.763Z,2.35
2019-05-17T22:59:50.996Z,2.40
2019-05-17T23:02:21.263Z,2.20
2019-05-17T23:04:51.489Z,2.30
2019-05-17T23:07:21.756Z,2.20
2019-05-17T23:09:51.981Z,2.35
2019-05-17T23:12:22.252Z,2.60
2019-05-17T23:14:52.480Z,2.00
2019-05-17T23:17:22.746Z,2.30
2019-05-17T23:19:52.972Z,2.05
2019-05-17T23:22:23.230Z,2.22
2019-05-17T23:24:53.522Z,2.42
2019-05-17T23:27:23.782Z,2.27
2019-05-17T23:29:54.008Z,2.15
2019-05-17T23:32:25.249Z,1.90
2019-05-17T23:34:55.470Z,2.02
2019-05-17T23:37:25.738Z,2.00
2019-05-17T23:39:55.976Z,1.75
2019-05-17T23:42:26.230Z,2.05
2019-05-17T23:44:56.466Z,2.20
2019-05-17T23:47:26.730Z,2.10
2019-05-17T23:49:56.974Z,1.80
2019-05-17T23:52:28.068Z,1.87
2019-05-17T23:54:58.298Z,1.80
2019-05-17T23:57:28.567Z,1.82
2019-05-17T23:59:58.804Z,1.62
